Time;durP1;ratioP1;P1;durP2;ratioP2;P2;SDS_P1;SDS_P2;PMS_P1;PMS_P2;Temp;Humidity;BMP_temperature;BMP_pressure;BME280_temperature;BME280_humidity;BME280_pressure;Samples;Min_cycle;Max_cycle;Signal;HPM_P1;HPM_P2
2022/01/08 19:35:40;;;;;;;;;;;;;;;;;;;;;
2022/01/08 19:38:23;;;;;;;30.95;16.57;;;;;;;9.40;51.63;99495.70;2288208;84;25696;-80
2022/01/08 19:41:58;;;;;;;31.93;16.32;;;;;;;9.21;51.44;99489.34;2310998;84;25660;-82
2022/01/08 19:45:32;;;;;;;31.60;16.55;;;;;;;9.06;51.30;99491.73;2284559;85;26012;-83
2022/01/08 19:49:16;;;;;;;29.70;16.80;;;;;;;8.91;51.16;99495.85;2271870;85;25742;-82
2022/01/08 19:52:56;;;;;;;31.27;16.02;;;;;;;8.78;50.96;99491.73;2277645;85;26086;-81
2022/01/08 19:56:26;;;;;;;30.30;15.38;;;;;;;8.66;50.80;99485.89;2273130;85;26016;-82
2022/01/08 19:59:50;;;;;;;37.50;18.10;;;;;;;8.55;50.67;99484.41;2286043;84;25921;-82
2022/01/08 20:03:42;;;;;;;27.40;15.78;;;;;;;8.48;50.54;99480.83;2289525;84;25738;-82
2022/01/08 20:07:15;;;;;;;34.88;17.40;;;;;;;8.39;50.36;99470.27;2284615;85;25723;-82
2022/01/08 20:11:07;;;;;;;28.75;16.37;;;;;;;8.34;50.16;99469.73;2282444;84;26384;-81
2022/01/08 20:14:37;;;;;;;33.98;17.25;;;;;;;8.30;49.90;99472.66;2337860;83;26336;-81
2022/01/08 20:18:09;;;;;;;32.10;17.52;;;;;;;8.24;49.66;99477.34;2313489;84;26150;-80
2022/01/08 20:21:48;;;;;;;30.20;16.70;;;;;;;8.20;49.42;99465.55;2320400;83;25693;-80
2022/01/08 20:25:15;;;;;;;28.60;18.02;;;;;;;8.16;49.19;99467.66;2335095;83;25648;-80
2022/01/08 20:28:53;;;;;;;29.70;16.05;;;;;;;8.11;48.99;99462.81;2208587;87;25715;-80
2022/01/08 20:32:38;;;;;;;37.25;17.95;;;;;;;8.08;48.81;99462.33;2201288;87;25241;-79
2022/01/08 20:36:14;;;;;;;35.68;18.35;;;;;;;8.03;48.60;99454.47;2125683;91;25812;-80
2022/01/08 20:39:40;;;;;;;31.25;17.80;;;;;;;8.01;48.45;99463.06;2131105;90;26085;-79
2022/01/08 20:43:39;;;;;;;30.97;17.77;;;;;;;7.97;48.30;99455.64;2121654;90;25793;-79
2022/01/08 20:47:10;;;;;;;28.95;16.52;;;;;;;7.95;48.16;99449.95;2067457;92;25942;-82
2022/01/08 20:50:39;;;;;;;29.45;16.25;;;;;;;7.94;48.04;99456.00;2051234;93;26154;-86
2022/01/08 20:54:31;;;;;;;30.82;18.00;;;;;;;7.92;47.94;99450.77;2043328;95;26068;-84
2022/01/08 20:58:18;;;;;;;30.68;16.23;;;;;;;7.89;47.81;99445.94;1998152;97;25807;-84
2022/01/08 21:01:53;;;;;;;29.30;16.77;;;;;;;7.88;47.69;99446.37;1999576;97;25884;-83
2022/01/08 21:05:47;;;;;;;26.52;15.25;;;;;;;7.85;47.60;99442.41;1986250;98;25805;-84
2022/01/08 21:09:39;;;;;;;;;;;;;;;;;;;;;
2022/01/08 21:13:15;;;;;;;32.70;16.95;;;;;;;7.84;47.40;99440.67;1978979;97;25900;-83
2022/01/08 21:16:41;;;;;;;29.50;17.50;;;;;;;7.82;47.32;99438.45;2002848;97;25725;-82
2022/01/08 21:20:14;;;;;;;32.88;16.70;;;;;;;7.81;47.24;99431.10;2010218;97;25848;-77
2022/01/08 21:23:59;;;;;;;34.98;17.75;;;;;;;7.80;47.16;99425.91;2003460;97;25859;-83
2022/01/08 21:27:42;;;;;;;30.95;16.87;;;;;;;7.80;47.09;99432.39;2007771;97;26024;-84
2022/01/08 21:31:18;;;;;;;32.23;17.45;;;;;;;7.77;47.01;99425.41;2017755;96;25787;-89
2022/01/08 21:35:04;;;;;;;31.15;18.05;;;;;;;7.76;46.93;99423.67;2085836;91;25804;-92
2022/01/08 21:38:37;;;;;;;31.95;16.87;;;;;;;7.74;46.87;99420.59;2122385;91;26432;-79
2022/01/08 21:42:21;;;;;;;29.20;17.67;;;;;;;7.71;46.79;99412.31;2165232;87;25762;-79
2022/01/08 21:46:19;;;;;;;;;;;;;;;;;;;;;
2022/01/08 21:49:27;;;;;;;32.17;18.25;;;;;;;7.71;46.69;99411.45;2243520;87;25897;-83
2022/01/08 21:53:11;;;;;;;31.23;17.95;;;;;;;7.67;46.63;99411.81;2252487;86;25650;-85
2022/01/08 21:57:02;;;;;;;34.63;18.45;;;;;;;7.69;46.58;99413.13;2185894;86;25542;-89
2022/01/08 22:00:33;;;;;;;31.55;17.57;;;;;;;7.68;46.55;99409.66;2219863;86;25706;-83
2022/01/08 22:03:56;;;;;;;34.30;19.07;;;;;;;7.68;46.49;99403.59;2191448;88;25837;-82
2022/01/08 22:07:59;;;;;;;29.02;17.92;;;;;;;7.67;46.46;99400.56;2177431;89;25968;-84
2022/01/08 22:12:20;;;;;;;;;;;;;;;;;;;;;
2022/01/08 22:16:23;;;;;;;34.03;17.57;;;;;;;7.65;46.36;99410.89;2132067;88;25764;-87
2022/01/08 22:21:00;;;;;;;32.15;18.35;;;;;;;7.64;46.32;99406.56;2128591;90;26087;-90
2022/01/08 22:25:15;;;;;;;;;;;;;;;;;;;;;
2022/01/08 22:29:13;;;;;;;33.18;18.32;;;;;;;7.62;46.28;99392.67;1982751;96;25818;-80
2022/01/08 22:36:50;;;;;;;36.77;19.80;;;;;;;7.63;46.24;99381.47;2084141;92;25797;-82
2022/01/08 22:52:22;;;;;;;30.60;18.35;;;;;;;7.65;46.16;99363.33;2083156;93;25776;-88
2022/01/08 23:00:17;;;;;;;;;;;;;;;;;;;;;
2022/01/08 23:04:08;;;;;;;33.70;18.67;;;;;;;7.65;46.12;99346.05;2060366;94;25762;-83
2022/01/08 23:08:11;;;;;;;32.05;19.05;;;;;;;7.65;46.11;99339.98;2013800;96;25684;-86
2022/01/08 23:12:16;;;;;;;34.25;18.57;;;;;;;7.64;46.08;99340.41;1993233;95;26145;-84
2022/01/08 23:20:44;;;;;;;37.65;19.07;;;;;;;7.67;46.05;99321.45;1932906;101;25958;-84
2022/01/08 23:24:38;;;;;;;35.37;20.40;;;;;;;7.66;46.04;99317.08;1892789;101;25885;-84
2022/01/08 23:28:28;;;;;;;35.40;19.80;;;;;;;7.66;46.01;99305.41;1900948;101;26351;-84
2022/01/08 23:32:53;;;;;;;35.70;18.00;;;;;;;7.66;46.00;99292.05;1922957;97;26158;-83
2022/01/08 23:54:35;;;;;;;;;;;;;;;;;;;;;
